sensor_id;sensor_type;location;lat;lon;timestamp;P1;durP1;ratioP1;P2;durP2;ratioP2
32146;SDS011;32190;49.112;8.598;2024-01-25T00:00:04;2.35;;;1.05;;
32146;SDS011;32190;49.112;8.598;2024-01-25T00:05:55;4.10;;;1.10;;
32146;SDS011;32190;49.112;8.598;2024-01-25T00:11:46;4.45;;;1.40;;
32146;SDS011;32190;49.112;8.598;2024-01-25T00:17:36;6.05;;;1.58;;
32146;SDS011;32190;49.112;8.598;2024-01-25T00:23:27;4.53;;;1.27;;
32146;SDS011;32190;49.112;8.598;2024-01-25T00:29:18;7.95;;;1.65;;
32146;SDS011;32190;49.112;8.598;2024-01-25T00:35:09;4.82;;;1.92;;
32146;SDS011;32190;49.112;8.598;2024-01-25T00:41:00;3.88;;;1.08;;
32146;SDS011;32190;49.112;8.598;2024-01-25T00:47:00;4.45;;;1.10;;
32146;SDS011;32190;49.112;8.598;2024-01-25T00:52:51;5.35;;;1.38;;
32146;SDS011;32190;49.112;8.598;2024-01-25T00:58:49;4.93;;;1.30;;
32146;SDS011;32190;49.112;8.598;2024-01-25T01:04:40;7.57;;;1.70;;
32146;SDS011;32190;49.112;8.598;2024-01-25T01:10:31;5.75;;;1.77;;
32146;SDS011;32190;49.112;8.598;2024-01-25T01:16:22;6.20;;;1.17;;
32146;SDS011;32190;49.112;8.598;2024-01-25T01:22:13;5.65;;;1.65;;
32146;SDS011;32190;49.112;8.598;2024-01-25T01:28:03;6.25;;;1.38;;
32146;SDS011;32190;49.112;8.598;2024-01-25T01:33:54;7.97;;;1.42;;
32146;SDS011;32190;49.112;8.598;2024-01-25T01:39:45;3.65;;;1.17;;
32146;SDS011;32190;49.112;8.598;2024-01-25T01:45:36;6.32;;;1.42;;
32146;SDS011;32190;49.112;8.598;2024-01-25T01:51:28;7.00;;;2.25;;
32146;SDS011;32190;49.112;8.598;2024-01-25T01:57:26;4.70;;;1.48;;
32146;SDS011;32190;49.112;8.598;2024-01-25T02:09:30;11.95;;;2.10;;
32146;SDS011;32190;49.112;8.598;2024-01-25T02:15:21;6.43;;;1.42;;
32146;SDS011;32190;49.112;8.598;2024-01-25T02:21:20;7.43;;;1.67;;
32146;SDS011;32190;49.112;8.598;2024-01-25T02:27:11;6.43;;;1.33;;
32146;SDS011;32190;49.112;8.598;2024-01-25T02:33:02;6.78;;;1.88;;
32146;SDS011;32190;49.112;8.598;2024-01-25T02:38:52;6.72;;;1.70;;
32146;SDS011;32190;49.112;8.598;2024-01-25T02:44:43;8.20;;;2.35;;
32146;SDS011;32190;49.112;8.598;2024-01-25T02:50:33;6.30;;;1.05;;
32146;SDS011;32190;49.112;8.598;2024-01-25T02:56:24;9.20;;;1.52;;
32146;SDS011;32190;49.112;8.598;2024-01-25T03:02:15;5.05;;;1.48;;
32146;SDS011;32190;49.112;8.598;2024-01-25T03:08:08;1.63;;;0.85;;
32146;SDS011;32190;49.112;8.598;2024-01-25T03:13:59;4.85;;;1.35;;
32146;SDS011;32190;49.112;8.598;2024-01-25T03:19:49;6.65;;;1.48;;
32146;SDS011;32190;49.112;8.598;2024-01-25T03:25:40;4.05;;;1.10;;
32146;SDS011;32190;49.112;8.598;2024-01-25T03:31:31;6.10;;;1.33;;
32146;SDS011;32190;49.112;8.598;2024-01-25T03:37:21;5.53;;;1.35;;
32146;SDS011;32190;49.112;8.598;2024-01-25T03:43:12;7.22;;;1.27;;
32146;SDS011;32190;49.112;8.598;2024-01-25T03:49:02;5.15;;;1.35;;
32146;SDS011;32190;49.112;8.598;2024-01-25T03:54:54;4.07;;;1.10;;
32146;SDS011;32190;49.112;8.598;2024-01-25T04:00:44;6.47;;;1.73;;
32146;SDS011;32190;49.112;8.598;2024-01-25T04:06:35;6.13;;;1.55;;
32146;SDS011;32190;49.112;8.598;2024-01-25T04:12:26;5.25;;;1.23;;
32146;SDS011;32190;49.112;8.598;2024-01-25T04:18:16;4.32;;;1.40;;
32146;SDS011;32190;49.112;8.598;2024-01-25T04:24:07;4.22;;;1.25;;
32146;SDS011;32190;49.112;8.598;2024-01-25T04:29:57;4.95;;;1.80;;
32146;SDS011;32190;49.112;8.598;2024-01-25T04:35:48;2.67;;;1.00;;
32146;SDS011;32190;49.112;8.598;2024-01-25T04:41:39;3.50;;;1.05;;
32146;SDS011;32190;49.112;8.598;2024-01-25T04:47:29;1.95;;;0.82;;
32146;SDS011;32190;49.112;8.598;2024-01-25T04:59:40;4.50;;;1.27;;
32146;SDS011;32190;49.112;8.598;2024-01-25T05:05:30;11.88;;;1.95;;
32146;SDS011;32190;49.112;8.598;2024-01-25T05:11:21;1.67;;;0.95;;
32146;SDS011;32190;49.112;8.598;2024-01-25T05:17:12;6.00;;;1.25;;
32146;SDS011;32190;49.112;8.598;2024-01-25T05:23:02;4.40;;;1.30;;
32146;SDS011;32190;49.112;8.598;2024-01-25T05:28:53;8.60;;;1.38;;
32146;SDS011;32190;49.112;8.598;2024-01-25T05:34:44;5.68;;;1.27;;
32146;SDS011;32190;49.112;8.598;2024-01-25T05:40:35;7.82;;;1.42;;
32146;SDS011;32190;49.112;8.598;2024-01-25T05:46:25;8.07;;;1.52;;
32146;SDS011;32190;49.112;8.598;2024-01-25T05:52:16;3.65;;;1.10;;
32146;SDS011;32190;49.112;8.598;2024-01-25T05:58:07;4.20;;;1.10;;
32146;SDS011;32190;49.112;8.598;2024-01-25T06:03:57;2.92;;;0.95;;
32146;SDS011;32190;49.112;8.598;2024-01-25T06:09:48;5.15;;;2.00;;
32146;SDS011;32190;49.112;8.598;2024-01-25T06:15:40;4.53;;;1.13;;
32146;SDS011;32190;49.112;8.598;2024-01-25T06:21:33;3.25;;;1.05;;
32146;SDS011;32190;49.112;8.598;2024-01-25T06:27:25;5.93;;;1.38;;
32146;SDS011;32190;49.112;8.598;2024-01-25T06:33:16;3.45;;;1.00;;
32146;SDS011;32190;49.112;8.598;2024-01-25T06:39:07;6.13;;;1.20;;
32146;SDS011;32190;49.112;8.598;2024-01-25T06:44:58;5.40;;;1.58;;
32146;SDS011;32190;49.112;8.598;2024-01-25T06:50:49;4.05;;;1.45;;
32146;SDS011;32190;49.112;8.598;2024-01-25T06:56:40;6.15;;;1.20;;
32146;SDS011;32190;49.112;8.598;2024-01-25T07:02:40;4.68;;;1.25;;
32146;SDS011;32190;49.112;8.598;2024-01-25T07:15:29;2.70;;;1.10;;
32146;SDS011;32190;49.112;8.598;2024-01-25T07:21:41;5.25;;;1.73;;
32146;SDS011;32190;49.112;8.598;2024-01-25T07:27:30;4.07;;;1.10;;
32146;SDS011;32190;49.112;8.598;2024-01-25T07:33:21;2.15;;;1.15;;
32146;SDS011;32190;49.112;8.598;2024-01-25T07:39:14;6.95;;;1.45;;
32146;SDS011;32190;49.112;8.598;2024-01-25T07:51:03;3.63;;;1.05;;
32146;SDS011;32190;49.112;8.598;2024-01-25T07:57:09;4.90;;;0.95;;
32146;SDS011;32190;49.112;8.598;2024-01-25T08:03:06;3.03;;;1.05;;
32146;SDS011;32190;49.112;8.598;2024-01-25T08:21:36;5.47;;;1.23;;
32146;SDS011;32190;49.112;8.598;2024-01-25T08:28:24;6.35;;;1.08;;
32146;SDS011;32190;49.112;8.598;2024-01-25T08:34:23;6.07;;;1.48;;
32146;SDS011;32190;49.112;8.598;2024-01-25T08:40:14;4.57;;;1.70;;
32146;SDS011;32190;49.112;8.598;2024-01-25T08:46:05;7.43;;;1.95;;
32146;SDS011;32190;49.112;8.598;2024-01-25T08:51:55;6.82;;;1.27;;
32146;SDS011;32190;49.112;8.598;2024-01-25T08:57:46;4.45;;;1.60;;
32146;SDS011;32190;49.112;8.598;2024-01-25T09:03:46;6.93;;;1.02;;
32146;SDS011;32190;49.112;8.598;2024-01-25T09:09:37;3.63;;;1.10;;
32146;SDS011;32190;49.112;8.598;2024-01-25T09:22:12;3.75;;;0.95;;
32146;SDS011;32190;49.112;8.598;2024-01-25T09:28:03;3.15;;;0.95;;
32146;SDS011;32190;49.112;8.598;2024-01-25T09:33:54;4.38;;;1.00;;
32146;SDS011;32190;49.112;8.598;2024-01-25T09:39:45;2.65;;;0.85;;
32146;SDS011;32190;49.112;8.598;2024-01-25T09:45:35;2.38;;;1.20;;
32146;SDS011;32190;49.112;8.598;2024-01-25T09:51:54;4.18;;;1.63;;
32146;SDS011;32190;49.112;8.598;2024-01-25T09:58:11;2.17;;;1.10;;
32146;SDS011;32190;49.112;8.598;2024-01-25T10:04:11;4.22;;;1.48;;
32146;SDS011;32190;49.112;8.598;2024-01-25T10:10:11;9.25;;;1.70;;
32146;SDS011;32190;49.112;8.598;2024-01-25T10:16:03;3.83;;;1.52;;
32146;SDS011;32190;49.112;8.598;2024-01-25T10:21:58;3.25;;;0.90;;
32146;SDS011;32190;49.112;8.598;2024-01-25T10:27:55;6.95;;;1.42;;
32146;SDS011;32190;49.112;8.598;2024-01-25T10:33:48;4.15;;;1.42;;
32146;SDS011;32190;49.112;8.598;2024-01-25T10:39:38;3.08;;;1.15;;
32146;SDS011;32190;49.112;8.598;2024-01-25T10:45:31;3.08;;;0.98;;
32146;SDS011;32190;49.112;8.598;2024-01-25T10:51:21;5.10;;;1.38;;
32146;SDS011;32190;49.112;8.598;2024-01-25T10:57:19;4.65;;;1.30;;
32146;SDS011;32190;49.112;8.598;2024-01-25T11:03:12;4.03;;;1.70;;
32146;SDS011;32190;49.112;8.598;2024-01-25T11:09:04;5.18;;;1.02;;
32146;SDS011;32190;49.112;8.598;2024-01-25T11:47:30;5.57;;;1.20;;
32146;SDS011;32190;49.112;8.598;2024-01-25T11:53:27;5.43;;;1.67;;
32146;SDS011;32190;49.112;8.598;2024-01-25T11:59:30;8.27;;;1.20;;
32146;SDS011;32190;49.112;8.598;2024-01-25T12:05:21;6.18;;;1.23;;
32146;SDS011;32190;49.112;8.598;2024-01-25T12:11:14;4.10;;;1.20;;
32146;SDS011;32190;49.112;8.598;2024-01-25T12:17:05;3.75;;;0.95;;
32146;SDS011;32190;49.112;8.598;2024-01-25T12:22:58;3.28;;;1.08;;
32146;SDS011;32190;49.112;8.598;2024-01-25T12:29:24;5.00;;;1.50;;
32146;SDS011;32190;49.112;8.598;2024-01-25T12:35:15;2.70;;;0.98;;
32146;SDS011;32190;49.112;8.598;2024-01-25T12:41:05;4.10;;;0.93;;
32146;SDS011;32190;49.112;8.598;2024-01-25T12:47:05;5.03;;;1.15;;
32146;SDS011;32190;49.112;8.598;2024-01-25T12:52:57;3.13;;;1.13;;
32146;SDS011;32190;49.112;8.598;2024-01-25T12:59:04;1.67;;;0.95;;
32146;SDS011;32190;49.112;8.598;2024-01-25T13:04:58;4.13;;;1.20;;
32146;SDS011;32190;49.112;8.598;2024-01-25T13:10:49;4.47;;;1.10;;
32146;SDS011;32190;49.112;8.598;2024-01-25T13:16:48;3.55;;;1.13;;
32146;SDS011;32190;49.112;8.598;2024-01-25T14:13:24;3.60;;;0.95;;
32146;SDS011;32190;49.112;8.598;2024-01-25T14:31:57;1.63;;;0.98;;
32146;SDS011;32190;49.112;8.598;2024-01-25T14:37:53;2.05;;;0.82;;
32146;SDS011;32190;49.112;8.598;2024-01-25T14:43:45;3.92;;;0.93;;
32146;SDS011;32190;49.112;8.598;2024-01-25T14:50:19;1.17;;;0.70;;
32146;SDS011;32190;49.112;8.598;2024-01-25T15:02:11;3.42;;;0.80;;
32146;SDS011;32190;49.112;8.598;2024-01-25T15:08:05;2.78;;;1.30;;
32146;SDS011;32190;49.112;8.598;2024-01-25T15:13:55;4.72;;;1.10;;
32146;SDS011;32190;49.112;8.598;2024-01-25T15:19:46;1.42;;;0.73;;
32146;SDS011;32190;49.112;8.598;2024-01-25T15:25:36;2.33;;;0.80;;
32146;SDS011;32190;49.112;8.598;2024-01-25T15:31:41;2.97;;;0.98;;
32146;SDS011;32190;49.112;8.598;2024-01-25T15:37:35;2.53;;;0.80;;
32146;SDS011;32190;49.112;8.598;2024-01-25T15:43:43;2.95;;;0.70;;
32146;SDS011;32190;49.112;8.598;2024-01-25T15:49:36;0.60;;;0.60;;
32146;SDS011;32190;49.112;8.598;2024-01-25T15:55:27;4.80;;;0.80;;
32146;SDS011;32190;49.112;8.598;2024-01-25T16:01:18;2.28;;;0.80;;
32146;SDS011;32190;49.112;8.598;2024-01-25T16:07:08;1.33;;;0.73;;
32146;SDS011;32190;49.112;8.598;2024-01-25T16:13:00;1.92;;;0.75;;
32146;SDS011;32190;49.112;8.598;2024-01-25T16:18:51;2.63;;;0.80;;
32146;SDS011;32190;49.112;8.598;2024-01-25T16:24:41;2.50;;;0.85;;
32146;SDS011;32190;49.112;8.598;2024-01-25T16:30:41;2.40;;;0.90;;
32146;SDS011;32190;49.112;8.598;2024-01-25T16:36:44;3.40;;;0.98;;
32146;SDS011;32190;49.112;8.598;2024-01-25T16:43:07;1.15;;;0.60;;
32146;SDS011;32190;49.112;8.598;2024-01-25T16:49:01;3.72;;;1.00;;
32146;SDS011;32190;49.112;8.598;2024-01-25T16:54:52;0.80;;;0.60;;
32146;SDS011;32190;49.112;8.598;2024-01-25T17:00:43;1.45;;;0.57;;
32146;SDS011;32190;49.112;8.598;2024-01-25T17:06:33;0.57;;;0.57;;
32146;SDS011;32190;49.112;8.598;2024-01-25T17:12:24;0.75;;;0.50;;
32146;SDS011;32190;49.112;8.598;2024-01-25T17:18:15;0.90;;;0.85;;
32146;SDS011;32190;49.112;8.598;2024-01-25T17:24:06;0.50;;;0.50;;
32146;SDS011;32190;49.112;8.598;2024-01-25T17:29:57;0.50;;;0.50;;
32146;SDS011;32190;49.112;8.598;2024-01-25T17:35:56;0.73;;;0.70;;
32146;SDS011;32190;49.112;8.598;2024-01-25T17:41:47;1.75;;;0.60;;
32146;SDS011;32190;49.112;8.598;2024-01-25T17:47:38;2.17;;;0.70;;
32146;SDS011;32190;49.112;8.598;2024-01-25T17:53:31;0.73;;;0.40;;
32146;SDS011;32190;49.112;8.598;2024-01-25T17:59:26;1.15;;;0.70;;
32146;SDS011;32190;49.112;8.598;2024-01-25T18:05:17;1.17;;;0.70;;
32146;SDS011;32190;49.112;8.598;2024-01-25T18:11:08;2.53;;;0.80;;
32146;SDS011;32190;49.112;8.598;2024-01-25T18:17:08;0.95;;;0.90;;
32146;SDS011;32190;49.112;8.598;2024-01-25T18:22:58;0.95;;;0.95;;
32146;SDS011;32190;49.112;8.598;2024-01-25T18:28:49;2.20;;;0.82;;
32146;SDS011;32190;49.112;8.598;2024-01-25T18:34:45;1.00;;;0.80;;
32146;SDS011;32190;49.112;8.598;2024-01-25T18:40:41;0.95;;;0.63;;
32146;SDS011;32190;49.112;8.598;2024-01-25T18:52:52;1.33;;;1.13;;
32146;SDS011;32190;49.112;8.598;2024-01-25T18:59:20;1.85;;;1.17;;
32146;SDS011;32190;49.112;8.598;2024-01-25T19:11:22;3.13;;;1.77;;
32146;SDS011;32190;49.112;8.598;2024-01-25T19:17:13;3.60;;;2.17;;
32146;SDS011;32190;49.112;8.598;2024-01-25T19:23:04;2.65;;;2.08;;
32146;SDS011;32190;49.112;8.598;2024-01-25T19:29:11;3.55;;;2.53;;
32146;SDS011;32190;49.112;8.598;2024-01-25T19:35:17;6.80;;;3.25;;
32146;SDS011;32190;49.112;8.598;2024-01-25T19:41:08;3.05;;;1.90;;
32146;SDS011;32190;49.112;8.598;2024-01-25T19:46:59;4.07;;;2.67;;
32146;SDS011;32190;49.112;8.598;2024-01-25T19:52:50;4.43;;;2.28;;
32146;SDS011;32190;49.112;8.598;2024-01-25T19:58:42;3.38;;;2.30;;
32146;SDS011;32190;49.112;8.598;2024-01-25T20:04:33;1.45;;;1.27;;
32146;SDS011;32190;49.112;8.598;2024-01-25T20:10:27;1.33;;;1.15;;
32146;SDS011;32190;49.112;8.598;2024-01-25T20:16:24;2.35;;;1.48;;
32146;SDS011;32190;49.112;8.598;2024-01-25T20:22:25;2.83;;;1.55;;
32146;SDS011;32190;49.112;8.598;2024-01-25T20:28:28;2.47;;;1.48;;
32146;SDS011;32190;49.112;8.598;2024-01-25T20:34:24;1.45;;;1.35;;
32146;SDS011;32190;49.112;8.598;2024-01-25T20:40:30;1.05;;;1.05;;
32146;SDS011;32190;49.112;8.598;2024-01-25T20:46:23;2.58;;;1.08;;
32146;SDS011;32190;49.112;8.598;2024-01-25T20:52:16;1.20;;;1.10;;
32146;SDS011;32190;49.112;8.598;2024-01-25T21:05:04;1.15;;;1.15;;
32146;SDS011;32190;49.112;8.598;2024-01-25T21:10:55;0.70;;;0.70;;
32146;SDS011;32190;49.112;8.598;2024-01-25T21:16:52;1.02;;;0.80;;
32146;SDS011;32190;49.112;8.598;2024-01-25T21:29:57;1.10;;;0.87;;
32146;SDS011;32190;49.112;8.598;2024-01-25T21:36:24;1.55;;;0.90;;
32146;SDS011;32190;49.112;8.598;2024-01-25T21:42:14;1.33;;;1.23;;
32146;SDS011;32190;49.112;8.598;2024-01-25T21:48:05;1.40;;;1.00;;
32146;SDS011;32190;49.112;8.598;2024-01-25T21:53:59;0.93;;;0.85;;
32146;SDS011;32190;49.112;8.598;2024-01-25T22:06:13;1.58;;;0.80;;
32146;SDS011;32190;49.112;8.598;2024-01-25T22:12:09;1.00;;;0.90;;
32146;SDS011;32190;49.112;8.598;2024-01-25T22:18:00;0.95;;;0.80;;
32146;SDS011;32190;49.112;8.598;2024-01-25T22:23:51;2.70;;;1.30;;
32146;SDS011;32190;49.112;8.598;2024-01-25T22:29:41;1.08;;;1.08;;
32146;SDS011;32190;49.112;8.598;2024-01-25T22:35:32;1.30;;;1.25;;
32146;SDS011;32190;49.112;8.598;2024-01-25T22:41:22;1.83;;;1.33;;
32146;SDS011;32190;49.112;8.598;2024-01-25T22:47:14;1.90;;;1.75;;
32146;SDS011;32190;49.112;8.598;2024-01-25T22:53:04;3.08;;;2.00;;
32146;SDS011;32190;49.112;8.598;2024-01-25T22:58:55;2.22;;;2.03;;
32146;SDS011;32190;49.112;8.598;2024-01-25T23:04:46;2.05;;;1.88;;
32146;SDS011;32190;49.112;8.598;2024-01-25T23:10:36;1.88;;;1.77;;
32146;SDS011;32190;49.112;8.598;2024-01-25T23:16:27;2.08;;;1.98;;
32146;SDS011;32190;49.112;8.598;2024-01-25T23:22:17;1.83;;;1.70;;
32146;SDS011;32190;49.112;8.598;2024-01-25T23:28:08;2.15;;;1.98;;
32146;SDS011;32190;49.112;8.598;2024-01-25T23:33:59;2.85;;;2.17;;
32146;SDS011;32190;49.112;8.598;2024-01-25T23:39:49;2.55;;;2.35;;
32146;SDS011;32190;49.112;8.598;2024-01-25T23:45:40;2.65;;;2.45;;
32146;SDS011;32190;49.112;8.598;2024-01-25T23:51:31;2.45;;;2.20;;
32146;SDS011;32190;49.112;8.598;2024-01-25T23:57:22;2.85;;;2.58;;
